createdAt,value
2019-05-11T00:00:30.220Z,58.30
2019-05-11T00:02:59.688Z,54.73
2019-05-11T00:05:29.185Z,59.47
2019-05-11T00:07:58.655Z,56.10
2019-05-11T00:10:28.085Z,52.40
2019-05-11T00:12:57.540Z,51.10
2019-05-11T00:15:27.056Z,53.33
2019-05-11T00:17:56.512Z,54.83
2019-05-11T00:20:25.969Z,54.75
2019-05-11T00:22:55.574Z,53.30
2019-05-11T00:25:25.002Z,59.03
2019-05-11T00:27:54.439Z,58.68
2019-05-11T00:30:23.891Z,59.08
2019-05-11T00:32:53.544Z,61.13
2019-05-11T00:35:22.997Z,56.80
2019-05-11T00:37:52.396Z,62.00
2019-05-11T00:40:22.001Z,62.55
2019-05-11T00:42:51.439Z,59.47
2019-05-11T00:45:20.903Z,55.73
2019-05-11T00:47:50.360Z,59.77
2019-05-11T00:50:19.804Z,58.95
2019-05-11T00:52:49.321Z,56.17
2019-05-11T00:55:18.768Z,57.13
2019-05-11T00:57:48.250Z,59.85
2019-05-11T01:00:18.257Z,59.03
2019-05-11T01:02:47.733Z,60.95
2019-05-11T01:05:17.692Z,65.95
2019-05-11T01:07:47.045Z,64.87
2019-05-11T01:10:25.626Z,65.20
2019-05-11T01:12:47.906Z,62.47
2019-05-11T01:15:18.650Z,61.33
2019-05-11T01:17:48.153Z,63.68
2019-05-11T01:20:18.778Z,57.67
2019-05-11T01:22:48.219Z,62.03
2019-05-11T01:25:18.015Z,58.53
2019-05-11T01:27:47.427Z,65.28
2019-05-11T01:30:17.263Z,64.60
2019-05-11T01:32:46.753Z,61.00
2019-05-11T01:35:16.217Z,60.40
2019-05-11T01:37:45.647Z,57.98
2019-05-11T01:40:15.272Z,63.05
2019-05-11T01:42:44.728Z,61.48
2019-05-11T01:45:14.240Z,59.90
2019-05-11T01:47:43.834Z,55.83
2019-05-11T01:50:13.234Z,63.63
2019-05-11T01:52:42.755Z,65.78
2019-05-11T01:55:12.560Z,62.45
2019-05-11T01:57:42.017Z,62.65
2019-05-11T02:00:11.892Z,66.87
2019-05-11T02:02:41.377Z,67.70
2019-05-11T02:05:29.826Z,71.47
2019-05-11T02:08:01.141Z,65.60
2019-05-11T02:10:31.298Z,60.78
2019-05-11T02:13:00.778Z,60.80
2019-05-11T02:15:30.198Z,64.27
2019-05-11T02:17:59.866Z,65.67
2019-05-11T02:20:29.296Z,59.20
2019-05-11T02:22:58.731Z,62.35
2019-05-11T02:25:28.494Z,64.37
2019-05-11T02:27:57.884Z,61.60
2019-05-11T02:30:27.364Z,64.32
2019-05-11T02:32:57.088Z,63.02
2019-05-11T02:35:26.545Z,66.22
2019-05-11T02:37:55.987Z,62.83
2019-05-11T02:40:26.112Z,64.65
2019-05-11T02:42:55.532Z,63.80
2019-05-11T02:45:39.865Z,61.58
2019-05-11T02:48:10.197Z,58.58
2019-05-11T02:50:39.757Z,60.30
2019-05-11T02:53:10.153Z,61.23
2019-05-11T02:55:40.148Z,56.88
2019-05-11T02:58:09.976Z,62.85
2019-05-11T03:00:44.751Z,62.30
2019-05-11T03:03:14.319Z,61.25
2019-05-11T03:05:43.780Z,57.17
2019-05-11T03:08:13.387Z,59.65
2019-05-11T03:10:42.818Z,59.75
2019-05-11T03:13:12.252Z,58.50
2019-05-11T03:15:41.710Z,58.70
2019-05-11T03:18:11.859Z,58.70
2019-05-11T03:20:41.656Z,50.30
2019-05-11T03:23:11.064Z,52.37
2019-05-11T03:25:40.578Z,56.63
2019-05-11T03:28:10.395Z,51.67
2019-05-11T03:30:39.835Z,49.98
2019-05-11T03:33:09.297Z,45.83
2019-05-11T03:35:38.913Z,42.50
2019-05-11T03:38:08.404Z,44.40
2019-05-11T03:40:37.796Z,40.40
2019-05-11T03:43:07.844Z,34.15
2019-05-11T03:45:37.864Z,35.73
2019-05-11T03:48:07.341Z,36.93
2019-05-11T03:50:37.163Z,29.85
2019-05-11T03:53:06.628Z,31.60
2019-05-11T03:55:36.109Z,31.65
2019-05-11T03:58:06.181Z,30.60
2019-05-11T04:00:35.994Z,29.98
2019-05-11T04:03:05.483Z,28.93
2019-05-11T04:05:34.859Z,30.65
2019-05-11T04:08:04.600Z,33.95
2019-05-11T04:10:34.050Z,32.95
2019-05-11T04:13:03.504Z,35.92
2019-05-11T04:15:33.377Z,28.77
2019-05-11T04:18:02.843Z,31.60
2019-05-11T04:20:32.276Z,29.18
2019-05-11T04:23:01.917Z,30.62
2019-05-11T04:25:31.384Z,30.83
2019-05-11T04:28:00.926Z,26.25
2019-05-11T04:30:30.521Z,30.37
2019-05-11T04:32:59.984Z,28.15
2019-05-11T04:35:29.472Z,28.47
2019-05-11T04:37:59.235Z,27.15
2019-05-11T04:40:28.811Z,29.20
2019-05-11T04:42:58.386Z,29.90
2019-05-11T04:45:27.885Z,24.10
2019-05-11T04:47:57.392Z,25.57
2019-05-11T04:50:26.925Z,25.43
2019-05-11T04:52:56.501Z,26.95
2019-05-11T04:55:25.983Z,24.70
2019-05-11T04:57:55.448Z,27.50
2019-05-11T05:00:25.196Z,21.97
2019-05-11T05:02:54.770Z,25.00
2019-05-11T05:05:24.477Z,25.30
2019-05-11T05:08:07.443Z,25.02
2019-05-11T05:10:25.081Z,23.07
2019-05-11T05:13:08.526Z,25.30
2019-05-11T05:15:25.835Z,24.07
2019-05-11T05:17:55.489Z,24.20
2019-05-11T05:20:24.934Z,26.15
2019-05-11T05:22:54.386Z,24.52
2019-05-11T05:25:24.196Z,23.57
2019-05-11T05:27:53.611Z,21.85
2019-05-11T05:30:22.986Z,24.72
2019-05-11T05:32:52.820Z,23.83
2019-05-11T05:35:22.268Z,22.80
2019-05-11T05:37:51.686Z,23.25
2019-05-11T05:40:21.332Z,23.15
2019-05-11T05:42:50.771Z,20.35
2019-05-11T05:45:20.241Z,21.07
2019-05-11T05:47:50.214Z,20.40
2019-05-11T05:50:19.662Z,23.27
2019-05-11T05:52:49.545Z,22.80
2019-05-11T05:55:19.128Z,22.77
2019-05-11T05:57:48.799Z,22.77
2019-05-11T06:00:19.146Z,21.07
2019-05-11T06:02:48.632Z,18.30
2019-05-11T06:05:18.314Z,21.65
2019-05-11T06:07:47.676Z,21.48
2019-05-11T06:10:18.067Z,17.25
2019-05-11T06:12:47.519Z,19.60
2019-05-11T06:15:17.282Z,22.15
2019-05-11T06:17:46.734Z,18.90
2019-05-11T06:20:17.633Z,19.50
2019-05-11T06:22:47.104Z,19.73
2019-05-11T06:25:16.616Z,22.05
2019-05-11T06:27:46.563Z,21.25
2019-05-11T06:30:16.419Z,20.97
2019-05-11T06:32:45.950Z,23.83
2019-05-11T06:35:16.988Z,24.10
2019-05-11T06:37:46.484Z,25.75
2019-05-11T06:40:16.145Z,27.00
2019-05-11T06:42:45.758Z,28.50
2019-05-11T06:45:15.276Z,25.75
2019-05-11T06:47:44.954Z,25.27
2019-05-11T06:50:14.594Z,24.65
2019-05-11T06:52:44.418Z,30.95
2019-05-11T06:55:14.047Z,26.90
2019-05-11T06:57:43.462Z,28.52
2019-05-11T07:00:13.469Z,26.82
2019-05-11T07:02:43.786Z,27.93
2019-05-11T07:05:13.462Z,24.98
2019-05-11T07:07:47.523Z,25.27
2019-05-11T07:10:14.764Z,24.27
2019-05-11T07:12:44.302Z,22.45
2019-05-11T07:15:13.770Z,20.45
2019-05-11T07:17:43.498Z,20.40
2019-05-11T07:20:13.112Z,21.27
2019-05-11T07:22:42.979Z,18.92
2019-05-11T07:25:12.576Z,17.55
2019-05-11T07:27:42.784Z,15.88
2019-05-11T07:30:12.801Z,17.52
2019-05-11T07:32:42.758Z,13.93
2019-05-11T07:35:12.202Z,16.42
2019-05-11T07:37:41.686Z,11.70
2019-05-11T07:40:11.264Z,12.15
2019-05-11T07:42:40.704Z,10.70
2019-05-11T07:45:10.348Z,12.33
2019-05-11T07:47:39.948Z,13.62
2019-05-11T07:50:09.717Z,9.78
2019-05-11T07:52:39.388Z,10.95
2019-05-11T07:55:09.719Z,11.43
2019-05-11T07:57:39.431Z,12.47
2019-05-11T08:00:09.835Z,19.05
2019-05-11T08:02:39.296Z,11.75
2019-05-11T08:05:09.053Z,11.97
2019-05-11T08:07:38.581Z,12.33
2019-05-11T08:10:08.627Z,13.43
2019-05-11T08:12:39.053Z,16.10
2019-05-11T08:15:13.264Z,14.00
2019-05-11T08:17:40.800Z,15.15
2019-05-11T08:20:10.503Z,15.78
2019-05-11T08:22:39.965Z,16.60
2019-05-11T08:25:09.501Z,15.55
2019-05-11T08:27:39.325Z,17.83
2019-05-11T08:30:11.333Z,14.90
2019-05-11T08:32:40.837Z,15.35
2019-05-11T08:35:10.907Z,17.17
2019-05-11T08:37:40.389Z,15.90
2019-05-11T08:40:10.983Z,17.23
2019-05-11T08:42:40.448Z,16.50
2019-05-11T08:45:20.183Z,14.98
2019-05-11T08:47:41.570Z,15.45
2019-05-11T08:50:11.142Z,23.27
2019-05-11T08:52:40.635Z,12.07
2019-05-11T08:55:10.434Z,11.45
2019-05-11T08:57:39.890Z,10.93
2019-05-11T09:00:13.776Z,10.20
2019-05-11T09:02:46.600Z,9.30
2019-05-11T09:05:15.434Z,10.93
2019-05-11T09:07:44.881Z,8.70
2019-05-11T09:10:14.521Z,8.85
2019-05-11T09:12:44.116Z,7.15
2019-05-11T09:15:28.074Z,7.53
2019-05-11T09:17:44.913Z,6.87
2019-05-11T09:20:14.572Z,10.25
2019-05-11T09:22:44.017Z,8.30
2019-05-11T09:25:15.138Z,7.17
2019-05-11T09:27:44.811Z,9.28
2019-05-11T09:30:18.189Z,9.58
2019-05-11T09:32:47.901Z,8.00
2019-05-11T09:35:18.965Z,8.23
2019-05-11T09:37:48.843Z,9.13
2019-05-11T09:40:18.770Z,6.83
2019-05-11T09:42:48.408Z,7.25
2019-05-11T09:45:18.868Z,8.65
2019-05-11T09:47:48.440Z,8.00
2019-05-11T09:50:18.610Z,7.53
2019-05-11T09:52:49.008Z,8.25
2019-05-11T09:55:19.318Z,9.03
2019-05-11T09:57:50.673Z,9.23
2019-05-11T10:00:20.638Z,10.38
2019-05-11T10:02:50.396Z,8.63
2019-05-11T10:05:19.828Z,18.70
2019-05-11T10:07:49.323Z,14.40
2019-05-11T10:10:19.109Z,11.48
2019-05-11T10:12:52.530Z,11.33
2019-05-11T10:15:20.925Z,8.73
2019-05-11T10:17:50.470Z,8.23
2019-05-11T10:20:19.923Z,7.33
2019-05-11T10:22:49.585Z,9.30
2019-05-11T10:25:19.209Z,8.00
2019-05-11T10:27:49.210Z,9.03
2019-05-11T10:30:20.092Z,9.38
2019-05-11T10:32:49.826Z,12.07
2019-05-11T10:35:19.336Z,8.88
2019-05-11T10:37:48.907Z,11.20
2019-05-11T10:40:19.214Z,12.45
2019-05-11T10:42:48.864Z,14.38
2019-05-11T10:45:18.409Z,16.27
2019-05-11T10:47:49.006Z,18.82
2019-05-11T10:50:18.841Z,18.42
2019-05-11T10:52:48.791Z,20.33
2019-05-11T10:55:19.389Z,19.30
2019-05-11T10:57:49.294Z,19.70
2019-05-11T11:00:19.596Z,19.52
2019-05-11T11:02:49.150Z,18.37
2019-05-11T11:05:18.916Z,19.05
2019-05-11T11:07:48.715Z,18.62
2019-05-11T11:10:18.749Z,18.15
2019-05-11T11:12:48.951Z,16.48
2019-05-11T11:15:19.419Z,19.87
2019-05-11T11:17:48.875Z,15.78
2019-05-11T11:20:18.908Z,21.23
2019-05-11T11:22:49.029Z,20.77
2019-05-11T11:25:18.671Z,23.27
2019-05-11T11:27:48.829Z,21.55
2019-05-11T11:30:18.776Z,20.10
2019-05-11T11:32:48.435Z,19.80
2019-05-11T11:35:18.740Z,21.17
2019-05-11T11:37:48.433Z,17.60
2019-05-11T11:40:18.028Z,17.35
2019-05-11T11:42:48.022Z,18.07
2019-05-11T11:45:18.374Z,17.12
2019-05-11T11:47:49.329Z,20.10
2019-05-11T11:50:19.333Z,16.45
2019-05-11T11:52:48.825Z,16.23
2019-05-11T11:55:18.843Z,18.35
2019-05-11T11:57:50.485Z,14.93
2019-05-11T12:00:20.082Z,14.40
2019-05-11T12:02:49.558Z,16.55
2019-05-11T12:05:19.406Z,13.22
2019-05-11T12:07:49.189Z,14.40
2019-05-11T12:10:18.921Z,13.50
2019-05-11T12:12:48.333Z,12.65
2019-05-11T12:15:18.163Z,13.73
2019-05-11T12:17:48.268Z,11.70
2019-05-11T12:20:18.254Z,9.95
2019-05-11T12:22:47.899Z,12.25
2019-05-11T12:25:18.522Z,13.10
2019-05-11T12:27:49.086Z,8.50
2019-05-11T12:30:19.444Z,9.48
2019-05-11T12:32:49.927Z,8.63
2019-05-11T12:35:19.911Z,16.93
2019-05-11T12:37:49.330Z,9.18
2019-05-11T12:40:19.380Z,10.78
2019-05-11T12:42:49.193Z,10.73
2019-05-11T12:45:18.914Z,8.33
2019-05-11T12:47:48.954Z,8.33
2019-05-11T12:50:18.820Z,8.10
2019-05-11T12:52:48.390Z,8.98
2019-05-11T12:55:19.523Z,9.58
2019-05-11T12:57:49.053Z,11.65
2019-05-11T13:00:19.242Z,13.98
2019-05-11T13:02:48.990Z,10.85
2019-05-11T13:05:18.469Z,10.37
2019-05-11T13:07:48.389Z,20.60
2019-05-11T13:10:18.904Z,22.50
2019-05-11T13:12:49.244Z,9.88
2019-05-11T13:15:19.241Z,21.50
2019-05-11T13:17:49.281Z,8.73
2019-05-11T13:20:18.805Z,9.60
2019-05-11T13:22:49.049Z,6.67
2019-05-11T13:25:18.819Z,8.40
2019-05-11T13:27:49.140Z,9.25
2019-05-11T13:30:19.286Z,9.98
2019-05-11T13:32:49.206Z,9.58
2019-05-11T13:35:18.735Z,7.92
2019-05-11T13:37:48.208Z,10.90
2019-05-11T13:40:18.651Z,7.15
2019-05-11T13:42:48.917Z,7.55
2019-05-11T13:45:18.963Z,6.37
2019-05-11T13:47:54.747Z,7.17
2019-05-11T13:50:20.007Z,8.70
2019-05-11T13:52:49.517Z,6.37
2019-05-11T13:55:19.191Z,5.85
2019-05-11T13:57:48.821Z,8.07
2019-05-11T14:00:19.341Z,5.83
2019-05-11T14:02:49.265Z,6.72
2019-05-11T14:05:19.076Z,4.97
2019-05-11T14:07:48.573Z,6.87
2019-05-11T14:10:18.302Z,9.23
2019-05-11T14:12:48.028Z,7.00
2019-05-11T14:15:18.791Z,7.83
2019-05-11T14:18:04.459Z,7.55
2019-05-11T14:20:21.025Z,5.33
2019-05-11T14:22:50.611Z,6.00
2019-05-11T14:25:20.043Z,6.03
2019-05-11T14:27:49.685Z,8.43
2019-05-11T14:30:19.533Z,7.28
2019-05-11T14:32:49.417Z,7.10
2019-05-11T14:35:19.124Z,5.83
2019-05-11T14:37:48.940Z,9.03
2019-05-11T14:40:18.843Z,7.42
2019-05-11T14:42:49.005Z,9.40
2019-05-11T14:45:18.896Z,8.55
2019-05-11T14:51:00.569Z,7.33
2019-05-11T14:53:30.054Z,7.58
2019-05-11T14:55:59.520Z,7.92
2019-05-11T14:58:29.334Z,8.45
2019-05-11T15:00:58.805Z,7.17
2019-05-11T15:03:28.857Z,33.25
2019-05-11T15:05:58.402Z,6.85
2019-05-11T15:08:28.641Z,9.10
2019-05-11T15:10:58.420Z,8.18
2019-05-11T15:13:28.831Z,8.50
2019-05-11T15:15:58.796Z,10.55
2019-05-11T15:18:37.911Z,9.15
2019-05-11T15:20:59.293Z,8.48
2019-05-11T15:23:28.748Z,7.15
2019-05-11T15:25:58.787Z,7.30
2019-05-11T15:28:28.649Z,9.65
2019-05-11T15:30:58.782Z,6.40
2019-05-11T15:33:28.415Z,8.95
2019-05-11T15:35:58.444Z,6.87
2019-05-11T15:38:28.405Z,7.03
2019-05-11T15:40:58.073Z,6.60
2019-05-11T15:43:28.180Z,6.85
2019-05-11T15:45:58.143Z,7.33
2019-05-11T15:48:27.631Z,7.67
2019-05-11T15:50:57.851Z,6.20
2019-05-11T15:53:27.658Z,6.87
2019-05-11T15:55:59.561Z,7.37
2019-05-11T15:58:29.081Z,5.10
2019-05-11T16:00:59.677Z,6.33
2019-05-11T16:03:29.485Z,8.48
2019-05-11T16:05:58.983Z,5.70
2019-05-11T16:08:28.484Z,9.73
2019-05-11T16:10:58.139Z,5.72
2019-05-11T16:13:28.462Z,6.22
2019-05-11T16:15:58.375Z,7.90
2019-05-11T16:18:27.829Z,7.15
2019-05-11T16:20:58.300Z,9.15
2019-05-11T16:23:28.493Z,6.27
2019-05-11T16:25:58.264Z,5.40
2019-05-11T16:28:30.583Z,6.92
2019-05-11T16:30:58.843Z,6.92
2019-05-11T16:33:28.282Z,6.22
2019-05-11T16:36:00.776Z,7.05
2019-05-11T16:38:29.199Z,8.60
2019-05-11T16:40:58.886Z,5.53
2019-05-11T16:43:28.352Z,5.60
2019-05-11T16:45:58.011Z,5.30
2019-05-11T16:48:27.806Z,8.35
2019-05-11T16:50:57.973Z,8.65
2019-05-11T16:53:28.456Z,8.28
2019-05-11T16:55:58.498Z,10.45
2019-05-11T16:58:28.226Z,8.50
2019-05-11T17:00:58.374Z,7.10
2019-05-11T17:03:28.286Z,5.50
2019-05-11T17:05:58.850Z,8.60
2019-05-11T17:08:28.877Z,7.42
2019-05-11T17:10:59.415Z,9.28
2019-05-11T17:13:29.063Z,14.33
2019-05-11T17:15:58.539Z,8.83
2019-05-11T17:18:28.696Z,6.25
2019-05-11T17:20:58.859Z,8.28
2019-05-11T17:23:30.933Z,8.55
2019-05-11T17:25:59.518Z,6.45
2019-05-11T17:28:29.299Z,6.00
2019-05-11T17:31:02.492Z,9.58
2019-05-11T17:33:30.110Z,18.85
2019-05-11T17:35:59.740Z,39.48
2019-05-11T17:38:29.182Z,10.25
2019-05-11T17:40:58.686Z,11.45
2019-05-11T17:43:28.248Z,6.35
2019-05-11T17:45:58.481Z,6.12
2019-05-11T17:48:28.401Z,9.00
2019-05-11T17:50:58.240Z,6.75
2019-05-11T17:53:28.621Z,7.15
2019-05-11T17:55:58.486Z,9.07
2019-05-11T17:58:28.021Z,10.43
2019-05-11T18:00:58.792Z,10.63
2019-05-11T18:03:28.584Z,9.47
2019-05-11T18:05:59.081Z,6.35
2019-05-11T18:08:30.845Z,8.23
2019-05-11T18:10:59.864Z,8.73
2019-05-11T18:13:29.271Z,8.58
2019-05-11T18:15:58.945Z,11.35
2019-05-11T18:18:29.204Z,14.93
2019-05-11T18:20:59.075Z,22.70
2019-05-11T18:23:29.067Z,37.83
2019-05-11T18:25:58.526Z,27.02
2019-05-11T18:28:29.116Z,29.18
2019-05-11T18:30:58.773Z,21.30
2019-05-11T18:33:28.260Z,74.53
2019-05-11T18:35:58.524Z,23.10
2019-05-11T18:38:28.221Z,11.03
2019-05-11T18:40:58.142Z,11.93
2019-05-11T18:43:28.200Z,10.03
2019-05-11T18:45:58.312Z,9.30
2019-05-11T18:48:28.981Z,6.87
2019-05-11T18:50:59.617Z,8.20
2019-05-11T18:53:29.843Z,12.23
2019-05-11T18:55:59.349Z,11.95
2019-05-11T18:58:28.796Z,10.85
2019-05-11T19:00:58.405Z,82.02
2019-05-11T19:03:28.216Z,21.57
2019-05-11T19:05:58.237Z,11.07
2019-05-11T19:08:28.114Z,13.40
2019-05-11T19:10:58.074Z,10.93
2019-05-11T19:13:28.399Z,9.23
2019-05-11T19:15:58.473Z,8.73
2019-05-11T19:18:28.339Z,11.20
2019-05-11T19:20:58.736Z,12.50
2019-05-11T19:23:30.262Z,11.07
2019-05-11T19:25:59.737Z,9.95
2019-05-11T19:28:29.177Z,14.85
2019-05-11T19:30:59.434Z,18.60
2019-05-11T19:33:28.870Z,16.57
2019-05-11T19:35:58.832Z,149.05
2019-05-11T19:38:28.527Z,53.90
2019-05-11T19:40:58.797Z,20.43
2019-05-11T19:43:28.503Z,20.23
2019-05-11T19:45:58.361Z,19.15
2019-05-11T19:48:28.193Z,20.92
2019-05-11T19:51:06.627Z,22.20
2019-05-11T19:53:29.472Z,21.73
2019-05-11T19:55:59.104Z,25.27
2019-05-11T19:58:29.077Z,25.40
2019-05-11T20:00:58.636Z,22.47
2019-05-11T20:03:28.669Z,35.95
2019-05-11T20:05:58.266Z,22.55
2019-05-11T20:08:29.118Z,27.37
2019-05-11T20:10:58.746Z,24.12
2019-05-11T20:13:28.567Z,29.02
2019-05-11T20:15:58.152Z,30.82
2019-05-11T20:18:28.861Z,26.97
2019-05-11T20:20:58.474Z,34.37
2019-05-11T20:23:27.879Z,31.35
2019-05-11T20:25:58.222Z,34.05
2019-05-11T20:28:28.530Z,29.57
2019-05-11T20:30:58.903Z,29.42
2019-05-11T20:33:28.487Z,36.75
2019-05-11T20:35:58.243Z,38.13
2019-05-11T20:38:28.167Z,36.38
2019-05-11T20:40:58.046Z,44.05
2019-05-11T20:43:27.892Z,62.13
2019-05-11T20:45:57.725Z,62.92
2019-05-11T20:48:27.871Z,55.85
2019-05-11T20:50:57.950Z,43.92
2019-05-11T20:53:28.715Z,42.73
2019-05-11T20:55:58.448Z,39.05
2019-05-11T20:58:28.939Z,41.25
2019-05-11T21:00:58.689Z,35.10
2019-05-11T21:03:28.135Z,38.60
2019-05-11T21:05:58.607Z,38.53
2019-05-11T21:08:28.418Z,36.17
2019-05-11T21:10:58.312Z,41.23
2019-05-11T21:13:28.212Z,39.40
2019-05-11T21:15:59.243Z,36.48
2019-05-11T21:18:28.904Z,37.73
2019-05-11T21:20:58.358Z,38.35
2019-05-11T21:23:29.009Z,112.88
2019-05-11T21:25:58.614Z,42.98
2019-05-11T21:28:30.343Z,40.85
2019-05-11T21:30:59.149Z,39.85
2019-05-11T21:33:28.598Z,39.48
2019-05-11T21:36:00.756Z,39.73
2019-05-11T21:38:31.722Z,38.15
2019-05-11T21:41:00.641Z,43.50
2019-05-11T21:43:30.071Z,39.20
2019-05-11T21:46:01.303Z,40.17
2019-05-11T21:48:30.627Z,94.90
2019-05-11T21:51:00.275Z,108.20
2019-05-11T21:53:29.765Z,91.92
2019-05-11T21:55:59.260Z,94.97
2019-05-11T21:58:28.956Z,106.03
2019-05-11T22:00:58.537Z,108.50
2019-05-11T22:03:28.253Z,93.37
2019-05-11T22:05:57.955Z,86.47
2019-05-11T22:08:28.346Z,92.65
2019-05-11T22:10:59.929Z,96.37
2019-05-11T22:13:29.144Z,69.67
2019-05-11T22:15:58.759Z,68.33
2019-05-11T22:18:31.198Z,70.75
2019-05-11T22:20:59.282Z,67.45
2019-05-11T22:23:29.112Z,55.63
2019-05-11T22:25:58.810Z,49.42
2019-05-11T22:28:28.635Z,45.45
2019-05-11T22:30:58.205Z,41.23
2019-05-11T22:33:28.455Z,41.90
2019-05-11T22:35:58.759Z,44.35
2019-05-11T22:38:30.300Z,40.63
2019-05-11T22:40:59.568Z,49.35
2019-05-11T22:43:29.109Z,40.50
2019-05-11T22:45:58.740Z,42.23
2019-05-11T22:48:28.225Z,43.73
2019-05-11T22:50:58.634Z,39.80
2019-05-11T22:53:43.353Z,36.48
2019-05-11T22:55:59.734Z,121.28
2019-05-11T22:58:29.274Z,53.08
2019-05-11T23:00:59.775Z,35.80
2019-05-11T23:03:29.376Z,33.08
2019-05-11T23:05:58.836Z,34.17
2019-05-11T23:08:28.306Z,36.63
2019-05-11T23:10:57.781Z,37.23
2019-05-11T23:13:27.880Z,36.05
2019-05-11T23:15:58.434Z,40.05
2019-05-11T23:18:28.640Z,34.53
2019-05-11T23:20:58.660Z,37.00
2019-05-11T23:23:28.710Z,35.23
2019-05-11T23:25:58.192Z,35.63
2019-05-11T23:28:28.794Z,37.10
2019-05-11T23:30:58.548Z,34.97
2019-05-11T23:33:28.096Z,35.75
2019-05-11T23:35:58.720Z,39.98
2019-05-11T23:38:28.364Z,33.77
2019-05-11T23:40:58.715Z,33.73
2019-05-11T23:43:30.035Z,37.98
2019-05-11T23:45:59.731Z,38.33
2019-05-11T23:48:29.181Z,32.50
2019-05-11T23:50:58.605Z,32.83
2019-05-11T23:53:28.380Z,29.90
2019-05-11T23:55:58.197Z,30.68
2019-05-11T23:58:28.327Z,33.02
